sensor_id;sensor_type;location;lat;lon;timestamp;P1;durP1;ratioP1;P2;durP2;ratioP2
819;SDS011;392;48.838;2.322;2024-03-23T00:52:21;13.47;;;8.70;;
819;SDS011;392;48.838;2.322;2024-03-23T00:54:49;12.90;;;8.53;;
819;SDS011;392;48.838;2.322;2024-03-23T00:57:15;14.63;;;8.20;;
819;SDS011;392;48.838;2.322;2024-03-23T00:59:42;11.30;;;8.10;;
819;SDS011;392;48.838;2.322;2024-03-23T01:02:09;12.23;;;7.30;;
819;SDS011;392;48.838;2.322;2024-03-23T01:04:36;12.03;;;7.63;;
819;SDS011;392;48.838;2.322;2024-03-23T01:07:02;10.10;;;7.50;;
819;SDS011;392;48.838;2.322;2024-03-23T01:09:31;9.33;;;7.40;;
819;SDS011;392;48.838;2.322;2024-03-23T01:11:57;10.17;;;7.40;;
819;SDS011;392;48.838;2.322;2024-03-23T01:14:24;9.77;;;7.07;;
819;SDS011;392;48.838;2.322;2024-03-23T01:16:50;9.90;;;6.80;;
819;SDS011;392;48.838;2.322;2024-03-23T01:19:18;10.20;;;6.50;;
819;SDS011;392;48.838;2.322;2024-03-23T01:21:44;10.13;;;6.80;;
819;SDS011;392;48.838;2.322;2024-03-23T01:24:11;11.80;;;7.87;;
819;SDS011;392;48.838;2.322;2024-03-23T01:26:39;8.83;;;6.40;;
819;SDS011;392;48.838;2.322;2024-03-23T01:29:06;10.03;;;7.07;;
819;SDS011;392;48.838;2.322;2024-03-23T01:31:32;10.20;;;7.73;;
819;SDS011;392;48.838;2.322;2024-03-23T01:33:59;13.33;;;7.37;;
819;SDS011;392;48.838;2.322;2024-03-23T01:36:26;8.73;;;6.20;;
819;SDS011;392;48.838;2.322;2024-03-23T01:38:53;8.27;;;6.50;;
819;SDS011;392;48.838;2.322;2024-03-23T01:41:19;10.53;;;6.90;;
819;SDS011;392;48.838;2.322;2024-03-23T01:43:48;10.83;;;6.67;;
819;SDS011;392;48.838;2.322;2024-03-23T01:46:14;10.53;;;6.20;;
819;SDS011;392;48.838;2.322;2024-03-23T01:48:41;11.73;;;6.57;;
819;SDS011;392;48.838;2.322;2024-03-23T01:51:08;10.37;;;6.07;;
819;SDS011;392;48.838;2.322;2024-03-23T01:53:36;12.70;;;6.20;;
819;SDS011;392;48.838;2.322;2024-03-23T01:56:02;10.50;;;6.40;;
819;SDS011;392;48.838;2.322;2024-03-23T01:58:30;10.30;;;5.50;;
819;SDS011;392;48.838;2.322;2024-03-23T02:00:58;9.93;;;5.97;;
819;SDS011;392;48.838;2.322;2024-03-23T02:03:26;10.07;;;6.10;;
819;SDS011;392;48.838;2.322;2024-03-23T02:05:53;11.67;;;5.43;;
819;SDS011;392;48.838;2.322;2024-03-23T02:08:21;11.00;;;4.67;;
819;SDS011;392;48.838;2.322;2024-03-23T02:10:49;10.80;;;4.93;;
819;SDS011;392;48.838;2.322;2024-03-23T02:13:17;9.30;;;4.33;;
819;SDS011;392;48.838;2.322;2024-03-23T02:15:44;6.57;;;4.10;;
819;SDS011;392;48.838;2.322;2024-03-23T02:18:13;8.20;;;3.90;;
819;SDS011;392;48.838;2.322;2024-03-23T02:20:39;10.73;;;4.00;;
819;SDS011;392;48.838;2.322;2024-03-23T02:23:13;7.10;;;3.73;;
819;SDS011;392;48.838;2.322;2024-03-23T02:25:40;7.17;;;3.73;;
819;SDS011;392;48.838;2.322;2024-03-23T02:28:07;6.03;;;3.53;;
819;SDS011;392;48.838;2.322;2024-03-23T02:30:34;7.57;;;3.60;;
819;SDS011;392;48.838;2.322;2024-03-23T02:33:01;3.90;;;3.03;;
819;SDS011;392;48.838;2.322;2024-03-23T02:35:28;10.93;;;3.40;;
819;SDS011;392;48.838;2.322;2024-03-23T02:37:55;7.30;;;3.63;;
819;SDS011;392;48.838;2.322;2024-03-23T02:40:23;6.20;;;3.83;;
819;SDS011;392;48.838;2.322;2024-03-23T02:42:51;7.63;;;3.27;;
819;SDS011;392;48.838;2.322;2024-03-23T02:45:17;8.33;;;3.60;;
819;SDS011;392;48.838;2.322;2024-03-23T02:47:45;10.40;;;3.47;;
819;SDS011;392;48.838;2.322;2024-03-23T02:50:11;5.10;;;2.70;;
819;SDS011;392;48.838;2.322;2024-03-23T02:52:40;9.03;;;4.03;;
819;SDS011;392;48.838;2.322;2024-03-23T02:55:06;7.33;;;2.90;;
819;SDS011;392;48.838;2.322;2024-03-23T02:57:35;9.00;;;3.40;;
819;SDS011;392;48.838;2.322;2024-03-23T03:00:02;7.37;;;3.13;;
819;SDS011;392;48.838;2.322;2024-03-23T03:02:30;7.20;;;2.87;;
819;SDS011;392;48.838;2.322;2024-03-23T03:04:56;5.50;;;2.73;;
819;SDS011;392;48.838;2.322;2024-03-23T03:07:23;8.60;;;3.27;;
819;SDS011;392;48.838;2.322;2024-03-23T03:09:50;7.77;;;2.80;;
819;SDS011;392;48.838;2.322;2024-03-23T03:12:17;4.57;;;2.67;;
819;SDS011;392;48.838;2.322;2024-03-23T03:14:45;8.00;;;2.60;;
819;SDS011;392;48.838;2.322;2024-03-23T03:17:12;7.40;;;2.87;;
819;SDS011;392;48.838;2.322;2024-03-23T03:19:38;9.80;;;2.83;;
819;SDS011;392;48.838;2.322;2024-03-23T03:22:05;5.00;;;2.80;;
819;SDS011;392;48.838;2.322;2024-03-23T03:24:32;3.93;;;2.50;;
819;SDS011;392;48.838;2.322;2024-03-23T03:26:59;5.90;;;2.70;;
819;SDS011;392;48.838;2.322;2024-03-23T03:29:25;7.63;;;2.90;;
819;SDS011;392;48.838;2.322;2024-03-23T03:32:00;6.80;;;2.70;;
819;SDS011;392;48.838;2.322;2024-03-23T03:34:29;9.20;;;2.70;;
819;SDS011;392;48.838;2.322;2024-03-23T03:36:57;10.83;;;3.60;;
819;SDS011;392;48.838;2.322;2024-03-23T03:39:23;6.00;;;2.80;;
819;SDS011;392;48.838;2.322;2024-03-23T03:41:50;6.77;;;3.30;;
819;SDS011;392;48.838;2.322;2024-03-23T03:44:17;7.20;;;3.30;;
819;SDS011;392;48.838;2.322;2024-03-23T03:46:44;6.70;;;3.00;;
819;SDS011;392;48.838;2.322;2024-03-23T03:49:11;6.70;;;2.67;;
819;SDS011;392;48.838;2.322;2024-03-23T03:51:39;8.90;;;3.00;;
819;SDS011;392;48.838;2.322;2024-03-23T03:54:05;5.73;;;2.50;;
819;SDS011;392;48.838;2.322;2024-03-23T03:56:32;9.33;;;3.10;;
819;SDS011;392;48.838;2.322;2024-03-23T03:58:58;5.87;;;2.70;;
819;SDS011;392;48.838;2.322;2024-03-23T04:01:25;7.40;;;3.00;;
819;SDS011;392;48.838;2.322;2024-03-23T04:03:51;8.33;;;2.90;;
819;SDS011;392;48.838;2.322;2024-03-23T04:06:20;6.20;;;2.97;;
819;SDS011;392;48.838;2.322;2024-03-23T04:08:47;8.83;;;3.40;;
819;SDS011;392;48.838;2.322;2024-03-23T04:11:14;7.03;;;2.57;;
819;SDS011;392;48.838;2.322;2024-03-23T04:13:40;8.90;;;3.00;;
819;SDS011;392;48.838;2.322;2024-03-23T04:16:07;7.10;;;3.40;;
819;SDS011;392;48.838;2.322;2024-03-23T04:18:34;6.07;;;2.40;;
819;SDS011;392;48.838;2.322;2024-03-23T04:21:02;9.90;;;3.23;;
819;SDS011;392;48.838;2.322;2024-03-23T04:23:30;8.80;;;3.13;;
819;SDS011;392;48.838;2.322;2024-03-23T04:26:02;8.87;;;3.20;;
819;SDS011;392;48.838;2.322;2024-03-23T04:28:29;5.97;;;2.53;;
819;SDS011;392;48.838;2.322;2024-03-23T04:30:56;10.23;;;3.30;;
819;SDS011;392;48.838;2.322;2024-03-23T04:33:22;10.27;;;3.27;;
819;SDS011;392;48.838;2.322;2024-03-23T04:35:49;12.47;;;3.33;;
819;SDS011;392;48.838;2.322;2024-03-23T04:38:16;7.90;;;3.03;;
819;SDS011;392;48.838;2.322;2024-03-23T04:40:45;10.40;;;2.70;;
819;SDS011;392;48.838;2.322;2024-03-23T04:43:21;7.27;;;3.00;;
819;SDS011;392;48.838;2.322;2024-03-23T04:45:48;9.67;;;3.57;;
819;SDS011;392;48.838;2.322;2024-03-23T04:48:15;10.40;;;3.27;;
819;SDS011;392;48.838;2.322;2024-03-23T04:50:42;7.93;;;2.63;;
819;SDS011;392;48.838;2.322;2024-03-23T04:53:10;7.47;;;2.83;;
819;SDS011;392;48.838;2.322;2024-03-23T04:55:38;6.20;;;2.80;;
819;SDS011;392;48.838;2.322;2024-03-23T04:58:06;6.40;;;2.83;;
819;SDS011;392;48.838;2.322;2024-03-23T05:00:33;10.30;;;3.50;;
819;SDS011;392;48.838;2.322;2024-03-23T05:03:01;6.23;;;2.87;;
819;SDS011;392;48.838;2.322;2024-03-23T05:05:27;9.70;;;4.37;;
819;SDS011;392;48.838;2.322;2024-03-23T05:07:54;6.30;;;2.83;;
819;SDS011;392;48.838;2.322;2024-03-23T05:10:20;5.90;;;2.50;;
819;SDS011;392;48.838;2.322;2024-03-23T05:12:47;4.97;;;2.70;;
819;SDS011;392;48.838;2.322;2024-03-23T05:15:16;6.40;;;2.67;;
819;SDS011;392;48.838;2.322;2024-03-23T05:17:42;3.73;;;2.10;;
819;SDS011;392;48.838;2.322;2024-03-23T05:20:10;3.70;;;2.53;;
819;SDS011;392;48.838;2.322;2024-03-23T05:22:37;4.87;;;2.23;;
819;SDS011;392;48.838;2.322;2024-03-23T05:25:06;5.00;;;2.30;;
819;SDS011;392;48.838;2.322;2024-03-23T05:27:35;5.87;;;2.30;;
819;SDS011;392;48.838;2.322;2024-03-23T05:30:02;7.63;;;2.70;;
819;SDS011;392;48.838;2.322;2024-03-23T05:32:32;5.47;;;3.00;;
819;SDS011;392;48.838;2.322;2024-03-23T05:34:59;3.53;;;2.17;;
819;SDS011;392;48.838;2.322;2024-03-23T05:37:25;3.40;;;1.93;;
819;SDS011;392;48.838;2.322;2024-03-23T05:39:52;3.50;;;2.40;;
819;SDS011;392;48.838;2.322;2024-03-23T05:42:19;2.97;;;1.63;;
819;SDS011;392;48.838;2.322;2024-03-23T05:44:46;3.60;;;2.07;;
819;SDS011;392;48.838;2.322;2024-03-23T05:47:13;7.57;;;2.20;;
819;SDS011;392;48.838;2.322;2024-03-23T05:49:43;5.90;;;2.00;;
819;SDS011;392;48.838;2.322;2024-03-23T05:52:09;4.40;;;1.90;;
819;SDS011;392;48.838;2.322;2024-03-23T05:54:36;3.90;;;1.87;;
819;SDS011;392;48.838;2.322;2024-03-23T05:57:02;1.93;;;1.60;;
819;SDS011;392;48.838;2.322;2024-03-23T05:59:32;3.30;;;1.70;;
819;SDS011;392;48.838;2.322;2024-03-23T06:01:59;2.77;;;1.80;;
819;SDS011;392;48.838;2.322;2024-03-23T06:04:26;4.07;;;1.77;;
819;SDS011;392;48.838;2.322;2024-03-23T06:06:53;4.87;;;1.90;;
819;SDS011;392;48.838;2.322;2024-03-23T06:09:20;3.93;;;2.07;;
819;SDS011;392;48.838;2.322;2024-03-23T06:11:46;1.53;;;1.40;;
819;SDS011;392;48.838;2.322;2024-03-23T06:14:15;6.60;;;1.97;;
819;SDS011;392;48.838;2.322;2024-03-23T06:16:41;2.80;;;1.60;;
819;SDS011;392;48.838;2.322;2024-03-23T06:19:09;2.07;;;1.50;;
819;SDS011;392;48.838;2.322;2024-03-23T06:21:35;5.20;;;1.73;;
819;SDS011;392;48.838;2.322;2024-03-23T06:24:04;3.90;;;2.23;;
819;SDS011;392;48.838;2.322;2024-03-23T06:26:31;2.10;;;1.67;;
819;SDS011;392;48.838;2.322;2024-03-23T06:28:58;1.80;;;1.67;;
819;SDS011;392;48.838;2.322;2024-03-23T06:31:24;2.83;;;1.70;;
819;SDS011;392;48.838;2.322;2024-03-23T06:33:51;4.40;;;1.93;;
819;SDS011;392;48.838;2.322;2024-03-23T06:36:17;6.50;;;1.60;;
819;SDS011;392;48.838;2.322;2024-03-23T06:38:45;1.80;;;1.10;;
819;SDS011;392;48.838;2.322;2024-03-23T06:41:12;2.00;;;1.73;;
819;SDS011;392;48.838;2.322;2024-03-23T06:43:40;4.07;;;1.70;;
819;SDS011;392;48.838;2.322;2024-03-23T06:46:06;1.30;;;1.23;;
819;SDS011;392;48.838;2.322;2024-03-23T06:48:33;4.40;;;1.30;;
819;SDS011;392;48.838;2.322;2024-03-23T06:50:59;2.43;;;1.40;;
819;SDS011;392;48.838;2.322;2024-03-23T06:53:26;4.53;;;1.47;;
819;SDS011;392;48.838;2.322;2024-03-23T06:55:53;2.70;;;1.30;;
819;SDS011;392;48.838;2.322;2024-03-23T06:58:23;2.90;;;2.30;;
819;SDS011;392;48.838;2.322;2024-03-23T07:00:50;6.03;;;2.00;;
819;SDS011;392;48.838;2.322;2024-03-23T07:03:17;2.40;;;1.50;;
819;SDS011;392;48.838;2.322;2024-03-23T07:05:44;2.70;;;1.60;;
819;SDS011;392;48.838;2.322;2024-03-23T07:08:11;2.20;;;1.60;;
819;SDS011;392;48.838;2.322;2024-03-23T07:10:38;5.80;;;2.07;;
819;SDS011;392;48.838;2.322;2024-03-23T07:13:06;3.80;;;1.40;;
819;SDS011;392;48.838;2.322;2024-03-23T07:15:34;3.40;;;1.13;;
819;SDS011;392;48.838;2.322;2024-03-23T07:18:01;3.33;;;1.17;;
819;SDS011;392;48.838;2.322;2024-03-23T07:20:28;2.33;;;0.90;;
819;SDS011;392;48.838;2.322;2024-03-23T07:22:55;1.80;;;0.90;;
819;SDS011;392;48.838;2.322;2024-03-23T07:25:22;2.90;;;1.33;;
819;SDS011;392;48.838;2.322;2024-03-23T07:27:50;1.37;;;1.20;;
819;SDS011;392;48.838;2.322;2024-03-23T07:30:18;3.10;;;1.40;;
819;SDS011;392;48.838;2.322;2024-03-23T07:32:47;1.47;;;1.10;;
819;SDS011;392;48.838;2.322;2024-03-23T07:35:13;1.97;;;1.27;;
819;SDS011;392;48.838;2.322;2024-03-23T07:37:41;4.40;;;1.97;;
819;SDS011;392;48.838;2.322;2024-03-23T07:40:09;4.90;;;1.73;;
819;SDS011;392;48.838;2.322;2024-03-23T07:42:37;6.43;;;1.90;;
819;SDS011;392;48.838;2.322;2024-03-23T07:45:03;5.13;;;1.90;;
819;SDS011;392;48.838;2.322;2024-03-23T07:47:31;2.07;;;1.87;;
819;SDS011;392;48.838;2.322;2024-03-23T07:49:59;4.57;;;2.70;;
819;SDS011;392;48.838;2.322;2024-03-23T07:52:27;7.63;;;2.20;;
819;SDS011;392;48.838;2.322;2024-03-23T07:54:54;3.10;;;2.10;;
819;SDS011;392;48.838;2.322;2024-03-23T07:57:21;6.97;;;2.50;;
819;SDS011;392;48.838;2.322;2024-03-23T07:59:47;5.70;;;2.13;;
819;SDS011;392;48.838;2.322;2024-03-23T08:02:14;4.67;;;1.80;;
819;SDS011;392;48.838;2.322;2024-03-23T08:04:41;2.03;;;1.53;;
819;SDS011;392;48.838;2.322;2024-03-23T08:07:09;3.80;;;1.90;;
819;SDS011;392;48.838;2.322;2024-03-23T08:09:35;1.93;;;1.53;;
819;SDS011;392;48.838;2.322;2024-03-23T08:12:03;2.40;;;1.90;;
819;SDS011;392;48.838;2.322;2024-03-23T08:14:30;1.70;;;1.60;;
819;SDS011;392;48.838;2.322;2024-03-23T08:16:57;3.00;;;1.97;;
819;SDS011;392;48.838;2.322;2024-03-23T08:19:23;4.93;;;1.83;;
819;SDS011;392;48.838;2.322;2024-03-23T08:21:50;6.60;;;2.40;;
819;SDS011;392;48.838;2.322;2024-03-23T08:24:18;2.87;;;1.67;;
819;SDS011;392;48.838;2.322;2024-03-23T08:26:46;2.60;;;1.47;;
819;SDS011;392;48.838;2.322;2024-03-23T08:29:12;4.33;;;1.60;;
819;SDS011;392;48.838;2.322;2024-03-23T08:31:40;4.60;;;1.97;;
819;SDS011;392;48.838;2.322;2024-03-23T08:34:06;2.27;;;1.40;;
819;SDS011;392;48.838;2.322;2024-03-23T08:36:33;5.43;;;2.17;;
819;SDS011;392;48.838;2.322;2024-03-23T08:38:59;2.20;;;1.73;;
819;SDS011;392;48.838;2.322;2024-03-23T08:41:28;3.13;;;1.70;;
819;SDS011;392;48.838;2.322;2024-03-23T08:43:54;3.00;;;1.53;;
819;SDS011;392;48.838;2.322;2024-03-23T08:46:22;2.60;;;1.47;;
819;SDS011;392;48.838;2.322;2024-03-23T08:48:48;4.43;;;1.93;;
819;SDS011;392;48.838;2.322;2024-03-23T08:51:17;4.20;;;1.70;;
819;SDS011;392;48.838;2.322;2024-03-23T08:53:43;3.10;;;1.50;;
819;SDS011;392;48.838;2.322;2024-03-23T08:56:11;3.90;;;1.67;;
819;SDS011;392;48.838;2.322;2024-03-23T08:58:39;3.43;;;2.20;;
819;SDS011;392;48.838;2.322;2024-03-23T09:01:07;3.57;;;1.90;;
819;SDS011;392;48.838;2.322;2024-03-23T09:03:36;2.20;;;1.60;;
819;SDS011;392;48.838;2.322;2024-03-23T09:06:06;5.37;;;2.10;;
819;SDS011;392;48.838;2.322;2024-03-23T09:08:33;3.17;;;1.33;;
819;SDS011;392;48.838;2.322;2024-03-23T09:11:03;4.60;;;1.73;;
819;SDS011;392;48.838;2.322;2024-03-23T09:13:31;3.60;;;1.77;;
819;SDS011;392;48.838;2.322;2024-03-23T09:16:00;2.23;;;1.27;;
819;SDS011;392;48.838;2.322;2024-03-23T09:18:27;4.47;;;1.87;;
819;SDS011;392;48.838;2.322;2024-03-23T09:20:58;4.00;;;1.70;;
819;SDS011;392;48.838;2.322;2024-03-23T09:23:24;4.10;;;1.47;;
819;SDS011;392;48.838;2.322;2024-03-23T09:25:51;3.67;;;1.50;;
819;SDS011;392;48.838;2.322;2024-03-23T09:28:17;2.47;;;2.03;;
819;SDS011;392;48.838;2.322;2024-03-23T09:30:45;4.73;;;1.77;;
819;SDS011;392;48.838;2.322;2024-03-23T09:33:12;2.57;;;1.60;;
819;SDS011;392;48.838;2.322;2024-03-23T09:35:40;2.10;;;1.33;;
819;SDS011;392;48.838;2.322;2024-03-23T09:38:09;3.73;;;1.80;;
819;SDS011;392;48.838;2.322;2024-03-23T09:40:39;2.73;;;1.50;;
819;SDS011;392;48.838;2.322;2024-03-23T09:43:07;4.00;;;1.40;;
819;SDS011;392;48.838;2.322;2024-03-23T09:45:35;3.23;;;1.00;;
819;SDS011;392;48.838;2.322;2024-03-23T09:48:06;4.17;;;1.40;;
819;SDS011;392;48.838;2.322;2024-03-23T09:50:37;2.47;;;1.27;;
819;SDS011;392;48.838;2.322;2024-03-23T09:53:03;2.43;;;1.57;;
819;SDS011;392;48.838;2.322;2024-03-23T09:55:33;2.10;;;1.40;;
819;SDS011;392;48.838;2.322;2024-03-23T09:58:00;1.43;;;1.33;;
819;SDS011;392;48.838;2.322;2024-03-23T10:00:28;2.80;;;1.50;;
819;SDS011;392;48.838;2.322;2024-03-23T10:02:54;2.27;;;1.43;;
819;SDS011;392;48.838;2.322;2024-03-23T10:05:23;5.33;;;1.40;;
819;SDS011;392;48.838;2.322;2024-03-23T10:07:51;2.37;;;1.43;;
819;SDS011;392;48.838;2.322;2024-03-23T10:10:18;1.90;;;1.40;;
819;SDS011;392;48.838;2.322;2024-03-23T10:12:47;1.67;;;1.17;;
819;SDS011;392;48.838;2.322;2024-03-23T10:15:17;2.00;;;1.20;;
819;SDS011;392;48.838;2.322;2024-03-23T10:17:45;2.80;;;1.30;;
819;SDS011;392;48.838;2.322;2024-03-23T10:20:12;2.43;;;1.50;;
819;SDS011;392;48.838;2.322;2024-03-23T10:22:44;1.80;;;1.43;;
819;SDS011;392;48.838;2.322;2024-03-23T10:25:14;2.67;;;1.47;;
819;SDS011;392;48.838;2.322;2024-03-23T10:27:41;4.00;;;1.73;;
819;SDS011;392;48.838;2.322;2024-03-23T10:30:09;3.03;;;1.40;;
819;SDS011;392;48.838;2.322;2024-03-23T10:32:37;4.27;;;1.60;;
819;SDS011;392;48.838;2.322;2024-03-23T10:35:14;2.50;;;1.50;;
819;SDS011;392;48.838;2.322;2024-03-23T10:37:44;2.03;;;1.90;;
819;SDS011;392;48.838;2.322;2024-03-23T10:40:14;4.27;;;2.03;;
819;SDS011;392;48.838;2.322;2024-03-23T10:42:41;3.33;;;1.80;;
819;SDS011;392;48.838;2.322;2024-03-23T10:45:08;5.93;;;2.07;;
819;SDS011;392;48.838;2.322;2024-03-23T10:47:36;3.90;;;1.77;;
819;SDS011;392;48.838;2.322;2024-03-23T10:50:04;2.80;;;1.70;;
819;SDS011;392;48.838;2.322;2024-03-23T10:52:31;2.87;;;1.40;;
819;SDS011;392;48.838;2.322;2024-03-23T10:54:59;3.60;;;2.00;;
819;SDS011;392;48.838;2.322;2024-03-23T10:57:31;3.67;;;2.03;;
819;SDS011;392;48.838;2.322;2024-03-23T11:00:07;3.10;;;1.70;;
819;SDS011;392;48.838;2.322;2024-03-23T11:02:35;4.63;;;2.00;;
819;SDS011;392;48.838;2.322;2024-03-23T11:05:06;3.43;;;1.73;;
819;SDS011;392;48.838;2.322;2024-03-23T11:07:55;6.70;;;1.70;;
819;SDS011;392;48.838;2.322;2024-03-23T11:10:26;1.90;;;1.20;;
819;SDS011;392;48.838;2.322;2024-03-23T11:12:55;2.87;;;1.60;;
819;SDS011;392;48.838;2.322;2024-03-23T11:15:23;2.23;;;1.47;;
819;SDS011;392;48.838;2.322;2024-03-23T11:18:02;3.00;;;1.77;;
819;SDS011;392;48.838;2.322;2024-03-23T11:20:33;2.83;;;1.60;;
819;SDS011;392;48.838;2.322;2024-03-23T11:23:00;2.33;;;1.70;;
819;SDS011;392;48.838;2.322;2024-03-23T11:25:28;3.23;;;1.33;;
819;SDS011;392;48.838;2.322;2024-03-23T11:27:56;4.03;;;1.50;;
819;SDS011;392;48.838;2.322;2024-03-23T11:30:25;3.07;;;1.90;;
819;SDS011;392;48.838;2.322;2024-03-23T11:32:53;2.83;;;1.43;;
819;SDS011;392;48.838;2.322;2024-03-23T11:35:25;3.13;;;1.70;;
819;SDS011;392;48.838;2.322;2024-03-23T11:38:06;1.50;;;1.40;;
819;SDS011;392;48.838;2.322;2024-03-23T11:40:35;2.90;;;1.50;;
819;SDS011;392;48.838;2.322;2024-03-23T11:43:04;1.80;;;1.50;;
819;SDS011;392;48.838;2.322;2024-03-23T11:45:36;2.57;;;1.40;;
819;SDS011;392;48.838;2.322;2024-03-23T11:48:05;1.80;;;1.30;;
819;SDS011;392;48.838;2.322;2024-03-23T11:50:35;1.37;;;1.27;;
819;SDS011;392;48.838;2.322;2024-03-23T11:53:06;3.07;;;1.70;;
819;SDS011;392;48.838;2.322;2024-03-23T11:55:45;1.30;;;1.17;;
819;SDS011;392;48.838;2.322;2024-03-23T11:58:14;3.47;;;1.50;;
819;SDS011;392;48.838;2.322;2024-03-23T12:00:42;3.70;;;1.60;;
819;SDS011;392;48.838;2.322;2024-03-23T12:03:15;2.40;;;1.57;;
819;SDS011;392;48.838;2.322;2024-03-23T12:05:47;1.67;;;1.43;;
819;SDS011;392;48.838;2.322;2024-03-23T12:08:16;1.60;;;1.40;;
819;SDS011;392;48.838;2.322;2024-03-23T12:10:49;5.00;;;1.40;;
819;SDS011;392;48.838;2.322;2024-03-23T12:13:19;2.27;;;1.30;;
819;SDS011;392;48.838;2.322;2024-03-23T12:15:49;3.73;;;1.53;;
819;SDS011;392;48.838;2.322;2024-03-23T12:18:16;1.37;;;1.27;;
819;SDS011;392;48.838;2.322;2024-03-23T12:20:44;2.67;;;1.40;;
819;SDS011;392;48.838;2.322;2024-03-23T12:23:10;1.10;;;1.00;;
819;SDS011;392;48.838;2.322;2024-03-23T12:25:41;2.87;;;1.40;;
819;SDS011;392;48.838;2.322;2024-03-23T12:28:08;1.93;;;1.80;;
819;SDS011;392;48.838;2.322;2024-03-23T12:30:38;2.00;;;1.80;;
819;SDS011;392;48.838;2.322;2024-03-23T12:33:05;2.10;;;1.53;;
819;SDS011;392;48.838;2.322;2024-03-23T12:35:33;2.10;;;1.40;;
819;SDS011;392;48.838;2.322;2024-03-23T12:37:59;1.77;;;1.67;;
819;SDS011;392;48.838;2.322;2024-03-23T12:40:27;1.30;;;1.20;;
819;SDS011;392;48.838;2.322;2024-03-23T12:42:53;1.40;;;1.30;;
819;SDS011;392;48.838;2.322;2024-03-23T12:45:21;2.87;;;1.37;;
819;SDS011;392;48.838;2.322;2024-03-23T12:47:49;2.57;;;1.40;;
819;SDS011;392;48.838;2.322;2024-03-23T12:50:18;5.03;;;2.03;;
819;SDS011;392;48.838;2.322;2024-03-23T12:52:44;2.00;;;1.60;;
819;SDS011;392;48.838;2.322;2024-03-23T12:55:11;4.50;;;1.60;;
819;SDS011;392;48.838;2.322;2024-03-23T12:57:37;1.63;;;1.33;;
819;SDS011;392;48.838;2.322;2024-03-23T13:00:06;1.50;;;1.40;;
819;SDS011;392;48.838;2.322;2024-03-23T13:02:35;4.50;;;1.83;;
819;SDS011;392;48.838;2.322;2024-03-23T13:05:05;1.90;;;1.60;;
819;SDS011;392;48.838;2.322;2024-03-23T13:07:34;2.47;;;2.27;;
819;SDS011;392;48.838;2.322;2024-03-23T13:10:03;3.33;;;1.60;;
819;SDS011;392;48.838;2.322;2024-03-23T13:12:31;4.30;;;1.70;;
819;SDS011;392;48.838;2.322;2024-03-23T13:14:58;2.90;;;1.40;;
819;SDS011;392;48.838;2.322;2024-03-23T13:17:24;2.53;;;1.40;;
819;SDS011;392;48.838;2.322;2024-03-23T13:19:53;2.50;;;0.90;;
819;SDS011;392;48.838;2.322;2024-03-23T13:22:20;1.47;;;1.37;;
819;SDS011;392;48.838;2.322;2024-03-23T13:24:48;2.40;;;1.43;;
819;SDS011;392;48.838;2.322;2024-03-23T13:27:14;2.00;;;1.40;;
819;SDS011;392;48.838;2.322;2024-03-23T13:29:41;2.23;;;1.60;;
819;SDS011;392;48.838;2.322;2024-03-23T13:32:07;2.27;;;1.93;;
819;SDS011;392;48.838;2.322;2024-03-23T13:34:35;1.80;;;1.63;;
819;SDS011;392;48.838;2.322;2024-03-23T13:37:01;3.17;;;1.40;;
819;SDS011;392;48.838;2.322;2024-03-23T13:39:30;1.40;;;1.20;;
819;SDS011;392;48.838;2.322;2024-03-23T13:41:56;2.70;;;1.37;;
819;SDS011;392;48.838;2.322;2024-03-23T13:44:23;3.40;;;1.20;;
819;SDS011;392;48.838;2.322;2024-03-23T13:46:49;2.47;;;1.20;;
819;SDS011;392;48.838;2.322;2024-03-23T13:49:24;1.20;;;1.10;;
819;SDS011;392;48.838;2.322;2024-03-23T13:51:52;1.57;;;1.00;;
819;SDS011;392;48.838;2.322;2024-03-23T13:54:19;1.80;;;1.00;;
819;SDS011;392;48.838;2.322;2024-03-23T13:56:49;3.10;;;1.70;;
819;SDS011;392;48.838;2.322;2024-03-23T13:59:16;1.47;;;0.90;;
819;SDS011;392;48.838;2.322;2024-03-23T14:01:42;2.40;;;1.10;;
819;SDS011;392;48.838;2.322;2024-03-23T14:04:10;2.17;;;1.20;;
819;SDS011;392;48.838;2.322;2024-03-23T14:06:37;1.73;;;0.80;;
819;SDS011;392;48.838;2.322;2024-03-23T14:09:04;1.23;;;0.90;;
819;SDS011;392;48.838;2.322;2024-03-23T14:11:30;1.87;;;1.07;;
819;SDS011;392;48.838;2.322;2024-03-23T14:13:59;1.47;;;1.03;;
819;SDS011;392;48.838;2.322;2024-03-23T14:16:25;1.03;;;0.93;;
819;SDS011;392;48.838;2.322;2024-03-23T14:18:53;0.93;;;0.63;;
819;SDS011;392;48.838;2.322;2024-03-23T14:21:19;0.83;;;0.67;;
819;SDS011;392;48.838;2.322;2024-03-23T14:23:46;1.13;;;1.03;;
819;SDS011;392;48.838;2.322;2024-03-23T14:26:12;1.77;;;1.20;;
819;SDS011;392;48.838;2.322;2024-03-23T14:28:39;1.33;;;1.20;;
819;SDS011;392;48.838;2.322;2024-03-23T14:31:07;1.00;;;0.90;;
819;SDS011;392;48.838;2.322;2024-03-23T14:33:35;2.20;;;1.00;;
819;SDS011;392;48.838;2.322;2024-03-23T14:36:03;2.27;;;0.87;;
819;SDS011;392;48.838;2.322;2024-03-23T14:38:31;3.23;;;0.90;;
819;SDS011;392;48.838;2.322;2024-03-23T14:40:57;2.90;;;1.20;;
819;SDS011;392;48.838;2.322;2024-03-23T14:43:26;1.27;;;1.03;;
819;SDS011;392;48.838;2.322;2024-03-23T14:46:09;1.90;;;1.17;;
819;SDS011;392;48.838;2.322;2024-03-23T14:48:38;2.13;;;1.10;;
819;SDS011;392;48.838;2.322;2024-03-23T14:51:05;1.57;;;1.00;;
819;SDS011;392;48.838;2.322;2024-03-23T14:53:34;1.43;;;1.00;;
819;SDS011;392;48.838;2.322;2024-03-23T14:56:01;5.03;;;1.37;;
819;SDS011;392;48.838;2.322;2024-03-23T14:58:29;2.50;;;1.20;;
819;SDS011;392;48.838;2.322;2024-03-23T15:00:59;3.40;;;1.63;;
819;SDS011;392;48.838;2.322;2024-03-23T15:03:28;1.73;;;1.17;;
819;SDS011;392;48.838;2.322;2024-03-23T15:05:55;1.50;;;1.40;;
819;SDS011;392;48.838;2.322;2024-03-23T15:08:23;1.50;;;1.13;;
819;SDS011;392;48.838;2.322;2024-03-23T15:10:50;1.73;;;1.20;;
819;SDS011;392;48.838;2.322;2024-03-23T15:13:17;4.33;;;1.70;;
819;SDS011;392;48.838;2.322;2024-03-23T15:15:43;1.93;;;1.60;;
819;SDS011;392;48.838;2.322;2024-03-23T15:18:13;2.37;;;1.70;;
819;SDS011;392;48.838;2.322;2024-03-23T15:20:42;2.80;;;1.13;;
819;SDS011;392;48.838;2.322;2024-03-23T15:23:19;3.03;;;1.77;;
819;SDS011;392;48.838;2.322;2024-03-23T15:25:45;2.67;;;1.20;;
819;SDS011;392;48.838;2.322;2024-03-23T15:28:13;1.47;;;1.37;;
819;SDS011;392;48.838;2.322;2024-03-23T15:30:39;2.80;;;1.30;;
819;SDS011;392;48.838;2.322;2024-03-23T15:33:06;4.37;;;1.40;;
819;SDS011;392;48.838;2.322;2024-03-23T15:35:32;2.60;;;1.30;;
819;SDS011;392;48.838;2.322;2024-03-23T15:38:01;2.07;;;1.23;;
819;SDS011;392;48.838;2.322;2024-03-23T15:40:27;1.63;;;1.30;;
819;SDS011;392;48.838;2.322;2024-03-23T15:42:54;4.43;;;1.10;;
819;SDS011;392;48.838;2.322;2024-03-23T15:45:20;1.10;;;0.80;;
819;SDS011;392;48.838;2.322;2024-03-23T15:47:47;1.33;;;1.13;;
819;SDS011;392;48.838;2.322;2024-03-23T15:50:14;1.80;;;1.70;;
819;SDS011;392;48.838;2.322;2024-03-23T15:52:42;3.70;;;1.67;;
819;SDS011;392;48.838;2.322;2024-03-23T15:55:09;2.90;;;1.50;;
819;SDS011;392;48.838;2.322;2024-03-23T15:57:36;2.90;;;2.07;;
819;SDS011;392;48.838;2.322;2024-03-23T16:00:03;3.40;;;2.30;;
819;SDS011;392;48.838;2.322;2024-03-23T16:02:38;1.67;;;1.10;;
819;SDS011;392;48.838;2.322;2024-03-23T16:05:04;1.07;;;1.03;;
819;SDS011;392;48.838;2.322;2024-03-23T16:07:36;3.73;;;1.97;;
819;SDS011;392;48.838;2.322;2024-03-23T16:10:02;1.90;;;1.30;;
819;SDS011;392;48.838;2.322;2024-03-23T16:12:35;3.10;;;1.40;;
819;SDS011;392;48.838;2.322;2024-03-23T16:15:02;3.70;;;1.80;;
819;SDS011;392;48.838;2.322;2024-03-23T16:17:30;2.00;;;1.37;;
819;SDS011;392;48.838;2.322;2024-03-23T16:20:01;2.20;;;1.20;;
819;SDS011;392;48.838;2.322;2024-03-23T16:22:29;2.63;;;2.00;;
819;SDS011;392;48.838;2.322;2024-03-23T16:24:55;4.37;;;3.37;;
819;SDS011;392;48.838;2.322;2024-03-23T16:27:22;10.33;;;8.10;;
819;SDS011;392;48.838;2.322;2024-03-23T16:29:50;2.33;;;1.73;;
819;SDS011;392;48.838;2.322;2024-03-23T16:32:17;1.40;;;1.10;;
819;SDS011;392;48.838;2.322;2024-03-23T16:34:44;1.67;;;0.80;;
819;SDS011;392;48.838;2.322;2024-03-23T16:37:11;0.90;;;0.70;;
819;SDS011;392;48.838;2.322;2024-03-23T16:39:37;2.07;;;1.20;;